Time;durP1;ratioP1;P1;durP2;ratioP2;P2;SDS_P1;SDS_P2;PMS_P1;PMS_P2;Temp;Humidity;BMP_temperature;BMP_pressure;BME280_temperature;BME280_humidity;BME280_pressure;Samples;Min_cycle;Max_cycle;Signal;HPM_P1;HPM_P2
2022/11/04 00:02:20;;;;;;;5.30;2.70;;;11.30;99.90;;;;;;5003754;28;20046;-85
2022/11/04 00:05:39;;;;;;;4.32;2.75;;;11.30;99.90;;;;;;4982998;28;20049;-90
2022/11/04 00:09:04;;;;;;;;;;;;;;;;;;;;;
2022/11/04 00:12:28;;;;;;;6.32;3.78;;;11.30;99.90;;;;;;4994969;28;20534;-86
2022/11/04 00:29:56;;;;;;;4.78;3.13;;;11.30;99.90;;;;;;4996802;28;20084;-86
2022/11/04 00:36:49;;;;;;;7.97;5.20;;;11.30;99.90;;;;;;4998896;28;20046;-87
2022/11/04 00:40:00;;;;;;;;;;;;;;;;;;;;;
2022/11/04 00:43:30;;;;;;;6.97;4.47;;;11.60;99.90;;;;;;4992153;28;20082;-86
2022/11/04 00:46:56;;;;;;;;;;;;;;;;;;;;;
2022/11/04 00:49:45;;;;;;;;;;;11.30;99.90;;;;;;5015303;28;20045;-86
2022/11/04 00:53:01;;;;;;;;;;;;;;;;;;;;;
2022/11/04 00:56:32;;;;;;;;;;;;;;;;;;;;;
2022/11/04 00:59:29;;;;;;;2.13;1.20;;;11.10;99.90;;;;;;5012318;28;20053;-86
2022/11/04 01:03:05;;;;;;;;;;;;;;;;;;;;;
2022/11/04 01:06:20;;;;;;;;;;;;;;;;;;;;;
2022/11/04 01:09:46;;;;;;;2.25;1.15;;;11.00;99.90;;;;;;5012884;28;20502;-86
2022/11/04 01:13:20;;;;;;;;;;;;;;;;;;;;;
2022/11/04 01:16:40;;;;;;;0.60;0.40;;;10.90;99.90;;;;;;4973479;28;20144;-87
2022/11/04 01:20:03;;;;;;;0.40;0.30;;;10.90;99.90;;;;;;5024114;28;20041;-86
2022/11/04 01:23:46;;;;;;;0.28;0.20;;;10.90;99.90;;;;;;5010486;28;20045;-86
2022/11/04 01:27:08;;;;;;;;;;;;;;;;;;;;;
2022/11/04 01:30:28;;;;;;;;;;;;;;;;;;;;;
2022/11/04 01:34:02;;;;;;;;;;;;;;;;;;;;;
2022/11/04 01:37:42;;;;;;;0.15;0.00;;;10.70;99.90;;;;;;5010095;28;20052;-86
2022/11/04 01:41:20;;;;;;;0.10;0.10;;;10.60;99.90;;;;;;5013118;28;20048;-86
2022/11/04 01:44:48;;;;;;;0.00;0.00;;;10.60;99.90;;;;;;5010854;28;20510;-87
2022/11/04 01:48:22;;;;;;;0.00;0.00;;;10.60;99.90;;;;;;4994065;28;20062;-87
2022/11/04 01:51:58;;;;;;;0.25;0.10;;;10.70;99.90;;;;;;5012678;28;20057;-86
2022/11/04 01:55:13;;;;;;;0.43;0.10;;;10.60;99.90;;;;;;5007456;28;20148;-86
2022/11/04 01:59:10;;;;;;;;;;;;;;;;;;;;;
2022/11/04 02:02:32;;;;;;;1.92;0.10;;;10.50;99.90;;;;;;5013676;28;20055;-88
2022/11/04 02:06:13;;;;;;;0.52;0.10;;;10.50;99.90;;;;;;5019331;28;20084;-86
2022/11/04 02:09:04;;;;;;;0.25;0.10;;;10.50;99.90;;;;;;5014619;28;20041;-87
2022/11/04 02:15:56;;;;;;;0.10;0.10;;;10.50;99.90;;;;;;5017281;28;20400;-87
2022/11/04 02:19:43;;;;;;;0.73;0.20;;;10.50;99.90;;;;;;5024236;28;20073;-86
2022/11/04 02:23:19;;;;;;;0.15;0.10;;;10.50;99.90;;;;;;4912868;28;20080;-85
2022/11/04 02:26:54;;;;;;;;;;;;;;;;;;;;;
2022/11/04 02:30:18;;;;;;;;;;;10.50;99.90;;;;;;4897440;29;20061;-86
2022/11/04 02:34:06;;;;;;;0.32;0.20;;;10.50;99.90;;;;;;4907890;29;19923;-87
2022/11/04 02:37:54;;;;;;;1.88;0.10;;;10.50;99.90;;;;;;4906424;29;20104;-86
2022/11/04 02:41:26;;;;;;;;;;;;;;;;;;;;;
2022/11/04 02:44:56;;;;;;;2.55;0.10;;;10.50;99.90;;;;;;4852997;29;20523;-86
2022/11/04 02:48:26;;;;;;;0.10;0.10;;;10.40;99.90;;;;;;4884461;29;20394;-86
2022/11/04 02:51:57;;;;;;;1.65;0.10;;;10.40;99.90;;;;;;4887530;29;20061;-86
2022/11/04 02:55:31;;;;;;;1.67;0.20;;;10.40;99.90;;;;;;4883503;29;20095;-85
2022/11/04 02:58:55;;;;;;;0.45;0.10;;;10.40;99.90;;;;;;4875593;29;20049;-87
2022/11/04 03:02:31;;;;;;;0.88;0.10;;;10.20;99.90;;;;;;4883013;29;20053;-87
2022/11/04 03:05:50;;;;;;;1.25;0.20;;;10.30;99.90;;;;;;4880149;29;20057;-85
2022/11/04 03:09:18;;;;;;;3.13;0.10;;;10.20;99.90;;;;;;4868847;29;20053;-86
2022/11/04 03:12:54;;;;;;;;;;;;;;;;;;;;;
2022/11/04 03:16:08;;;;;;;;;;;;;;;;;;;;;
2022/11/04 03:19:22;;;;;;;3.05;0.25;;;10.10;99.90;;;;;;4918443;29;20048;-86
2022/11/04 03:22:43;;;;;;;;;;;;;;;;;;;;;
2022/11/04 03:26:02;;;;;;;1.00;0.10;;;10.10;99.90;;;;;;4928712;29;20059;-88
2022/11/04 03:29:45;;;;;;;;;;;;;;;;;;;;;
2022/11/04 03:33:12;;;;;;;;;;;;;;;;;;;;;
2022/11/04 03:36:00;;;;;;;2.00;0.20;;;10.20;99.90;;;;;;4976931;28;20043;-85
2022/11/04 03:39:20;;;;;;;2.22;0.30;;;10.30;99.90;;;;;;4994470;28;20053;-86
2022/11/04 03:42:42;;;;;;;;;;;;;;;;;;;;;
2022/11/04 03:45:56;;;;;;;1.27;0.40;;;10.30;99.90;;;;;;4992169;28;20133;-86
2022/11/04 03:49:38;;;;;;;;;;;;;;;;;;;;;
2022/11/04 03:53:24;;;;;;;;;;;;;;;;;;;;;
2022/11/04 03:56:46;;;;;;;3.08;0.50;;;9.90;99.90;;;;;;4993959;28;20058;-85
2022/11/04 04:00:24;;;;;;;3.80;0.30;;;10.20;99.90;;;;;;5008620;28;20088;-85
2022/11/04 04:03:52;;;;;;;;;;;;;;;;;;;;;
2022/11/04 04:06:56;;;;;;;0.50;0.20;;;10.30;99.90;;;;;;4992373;28;20054;-86
2022/11/04 04:13:58;;;;;;;;;;;;;;;;;;;;;
2022/11/04 04:17:11;;;;;;;0.30;0.20;;;10.30;99.90;;;;;;4989261;28;20515;-85
2022/11/04 04:20:51;;;;;;;;;;;;;;;;;;;;;
2022/11/04 04:28:01;;;;;;;;;;;;;;;;;;;;;
2022/11/04 04:35:40;;;;;;;1.38;0.20;;;10.30;99.90;;;;;;5005106;28;20052;-85
2022/11/04 04:45:40;;;;;;;0.20;0.10;;;10.10;99.90;;;;;;5007881;28;20117;-85
2022/11/04 04:48:44;;;;;;;;;;;10.10;99.90;;;;;;5015815;28;20081;-85
2022/11/04 04:52:24;;;;;;;0.10;0.10;;;10.00;99.90;;;;;;5017009;28;20056;-85
2022/11/04 04:55:52;;;;;;;0.20;0.20;;;10.00;99.90;;;;;;5014045;28;20125;-86
2022/11/04 04:59:15;;;;;;;0.10;0.10;;;10.00;99.90;;;;;;5012798;28;20037;-85
2022/11/04 05:02:42;;;;;;;;;;;;;;;;;;;;;
2022/11/04 05:06:08;;;;;;;;;;;;;;;;;;;;;
2022/11/04 05:09:33;;;;;;;0.10;0.10;;;9.90;99.90;;;;;;5015113;28;20037;-85
2022/11/04 05:16:31;;;;;;;0.45;0.20;;;9.90;99.90;;;;;;5009814;28;20037;-85
2022/11/04 05:20:02;;;;;;;0.25;0.10;;;9.80;99.90;;;;;;5012718;28;20078;-85
2022/11/04 05:23:17;;;;;;;;;;;;;;;;;;;;;
2022/11/04 05:26:50;;;;;;;;;;;;;;;;;;;;;
2022/11/04 05:30:12;;;;;;;0.22;0.20;;;9.80;99.90;;;;;;5010093;28;20046;-85
2022/11/04 05:33:15;;;;;;;0.30;0.20;;;9.80;99.90;;;;;;5006472;28;20060;-87
2022/11/04 05:36:37;;;;;;;;;;;;;;;;;;;;;
2022/11/04 05:40:12;;;;;;;;;;;;;;;;;;;;;
2022/11/04 05:43:31;;;;;;;0.20;0.10;;;9.80;99.90;;;;;;5009306;28;20042;-86
2022/11/04 05:46:56;;;;;;;0.85;0.10;;;9.80;99.90;;;;;;5023084;28;20085;-86
2022/11/04 05:50:42;;;;;;;;;;;;;;;;;;;;;
2022/11/04 05:54:06;;;;;;;;;;;;;;;;;;;;;
2022/11/04 05:57:42;;;;;;;;;;;;;;;;;;;;;
2022/11/04 06:01:04;;;;;;;0.28;0.13;;;9.80;99.90;;;;;;5000064;28;20050;-85
2022/11/04 06:04:21;;;;;;;1.60;0.20;;;9.80;99.90;;;;;;5007229;28;20392;-87
2022/11/04 06:07:23;;;;;;;0.70;0.17;;;9.90;99.90;;;;;;5002915;28;20451;-86
2022/11/04 06:10:24;;;;;;;1.05;0.20;;;9.70;99.90;;;;;;4972886;28;20042;-85
2022/11/04 06:13:38;;;;;;;;;;;;;;;;;;;;;
2022/11/04 06:16:37;;;;;;;0.65;0.20;;;9.70;99.90;;;;;;5000458;28;20415;-88
2022/11/04 06:19:53;;;;;;;0.32;0.10;;;10.10;99.90;;;;;;5024590;28;20049;-88
2022/11/04 06:23:06;;;;;;;1.85;0.10;;;9.60;99.90;;;;;;5010810;28;20041;-86
2022/11/04 06:26:18;;;;;;;0.20;0.13;;;9.60;99.90;;;;;;4945895;28;20077;-86
2022/11/04 06:29:54;;;;;;;;;;;;;;;;;;;;;
2022/11/04 06:33:20;;;;;;;;;;;;;;;;;;;;;
2022/11/04 06:36:48;;;;;;;0.75;0.43;;;9.50;99.90;;;;;;5018794;28;20046;-85
2022/11/04 06:39:34;;;;;;;0.73;0.10;;;9.50;99.90;;;;;;5038086;28;20048;-84
2022/11/04 06:42:11;;;;;;;0.10;0.10;;;9.50;99.90;;;;;;5024002;28;20053;-88
2022/11/04 06:44:49;;;;;;;0.15;0.10;;;9.50;99.90;;;;;;5022521;28;20044;-87
2022/11/04 06:47:55;;;;;;;0.70;0.20;;;9.40;99.90;;;;;;5019536;28;20053;-88
2022/11/04 06:51:00;;;;;;;1.20;0.17;;;9.40;99.90;;;;;;5008133;28;20053;-88
2022/11/04 06:53:55;;;;;;;;;;;;;;;;;;;;;
2022/11/04 06:57:05;;;;;;;;;;;;;;;;;;;;;
2022/11/04 06:59:55;;;;;;;0.60;0.10;;;9.30;99.90;;;;;;5015853;28;20072;-91
2022/11/04 07:03:12;;;;;;;;;;;;;;;;;;;;;
2022/11/04 07:06:10;;;;;;;2.22;0.20;;;9.20;99.90;;;;;;5020629;28;20441;-92
2022/11/04 07:09:22;;;;;;;0.40;0.20;;;9.20;99.90;;;;;;5012772;28;20061;-91
2022/11/04 07:12:23;;;;;;;2.45;0.20;;;9.20;99.90;;;;;;5012218;28;20132;-92
2022/11/04 07:15:15;;;;;;;;;;;9.30;99.90;;;;;;5015716;28;20088;-91
2022/11/04 07:18:22;;;;;;;1.17;0.28;;;9.30;99.90;;;;;;5023362;28;19921;-90
2022/11/04 07:21:24;;;;;;;0.85;0.20;;;9.30;99.90;;;;;;5021480;28;20041;-91
2022/11/04 07:24:23;;;;;;;1.05;0.30;;;9.30;99.90;;;;;;5010671;28;20129;-92
2022/11/04 07:27:43;;;;;;;;;;;;;;;;;;;;;
2022/11/04 07:30:47;;;;;;;1.10;0.25;;;9.40;99.90;;;;;;4956691;28;20135;-90
2022/11/04 07:33:48;;;;;;;0.20;0.20;;;10.10;99.90;;;;;;5003067;28;20053;-87
2022/11/04 07:36:54;;;;;;;;;;;;;;;;;;;;;
2022/11/04 07:39:57;;;;;;;1.45;0.20;;;9.50;99.90;;;;;;5001817;28;20059;-88
2022/11/04 07:43:07;;;;;;;;;;;;;;;;;;;;;
2022/11/04 07:46:08;;;;;;;1.85;0.40;;;9.50;99.90;;;;;;5015511;28;20085;-89
2022/11/04 07:49:06;;;;;;;2.80;0.88;;;9.50;99.90;;;;;;4984605;28;20133;-88
2022/11/04 07:52:01;;;;;;;0.65;0.40;;;9.50;99.90;;;;;;5019184;28;20461;-87
2022/11/04 07:54:55;;;;;;;2.38;0.20;;;9.90;99.90;;;;;;5003904;28;20637;-86
2022/11/04 07:58:08;;;;;;;1.77;0.52;;;9.50;99.90;;;;;;4988368;28;20108;-87
2022/11/04 08:01:07;;;;;;;4.53;0.50;;;10.00;99.90;;;;;;5004361;28;20053;-87
2022/11/04 08:04:10;;;;;;;1.25;0.40;;;9.60;99.90;;;;;;5005962;28;20359;-87
2022/11/04 08:07:13;;;;;;;1.02;0.47;;;9.70;99.90;;;;;;5003266;28;20128;-86
2022/11/04 08:10:12;;;;;;;5.22;0.50;;;9.00;99.90;;;;;;5018908;28;20046;-89
2022/11/04 08:13:11;;;;;;;1.02;0.57;;;9.70;99.90;;;;;;4999086;28;20410;-90
2022/11/04 08:16:08;;;;;;;4.68;0.43;;;9.70;99.90;;;;;;4982633;28;20093;-87
2022/11/04 08:19:19;;;;;;;0.70;0.30;;;9.70;99.90;;;;;;4999985;28;20053;-87
2022/11/04 08:22:30;;;;;;;0.60;0.33;;;9.80;99.90;;;;;;5016685;28;20060;-89
2022/11/04 08:25:24;;;;;;;1.60;0.30;;;9.90;99.90;;;;;;4989792;28;20289;-88
2022/11/04 08:28:09;;;;;;;4.68;0.30;;;10.00;99.90;;;;;;5031681;28;20048;-84
2022/11/04 08:31:34;;;;;;;;;;;;;;;;;;;;;
2022/11/04 08:34:37;;;;;;;2.05;0.30;;;10.20;99.90;;;;;;4986271;28;20144;-85
2022/11/04 08:37:47;;;;;;;;;;;;;;;;;;;;;
2022/11/04 08:40:52;;;;;;;1.70;0.30;;;10.40;99.90;;;;;;4997517;28;20085;-86
2022/11/04 08:44:16;;;;;;;;;;;;;;;;;;;;;
2022/11/04 08:47:18;;;;;;;;;;;;;;;;;;;;;
2022/11/04 08:50:30;;;;;;;;;;;;;;;;;;;;;
2022/11/04 08:53:38;;;;;;;1.40;0.20;;;10.50;99.90;;;;;;4998908;28;20150;-87
2022/11/04 08:56:39;;;;;;;0.70;0.20;;;10.50;99.90;;;;;;4997164;28;20054;-87
2022/11/04 08:59:40;;;;;;;1.17;0.22;;;10.60;99.90;;;;;;5015693;28;20042;-87
2022/11/04 09:02:41;;;;;;;0.80;0.20;;;10.60;99.90;;;;;;4997332;28;20465;-87
2022/11/04 09:05:47;;;;;;;0.85;0.25;;;10.60;99.90;;;;;;4998183;28;20120;-86
2022/11/04 09:09:07;;;;;;;;;;;;;;;;;;;;;
2022/11/04 09:12:10;;;;;;;2.10;0.25;;;10.70;99.90;;;;;;5015553;28;20141;-87
2022/11/04 09:15:21;;;;;;;1.17;0.20;;;10.70;99.90;;;;;;4981104;28;20058;-87
2022/11/04 09:18:24;;;;;;;0.20;0.20;;;10.70;99.90;;;;;;5011558;28;20056;-87
2022/11/04 09:21:23;;;;;;;0.75;0.20;;;10.80;99.90;;;;;;5014866;28;20053;-88
2022/11/04 09:24:30;;;;;;;0.50;0.13;;;10.90;99.90;;;;;;5014515;28;20115;-86
2022/11/04 09:27:26;;;;;;;;;;;10.90;99.90;;;;;;4981670;28;20053;-87
2022/11/04 09:30:23;;;;;;;2.35;0.25;;;11.00;99.90;;;;;;5015302;28;20402;-87
2022/11/04 09:33:40;;;;;;;;;;;;;;;;;;;;;
2022/11/04 09:36:46;;;;;;;0.20;0.10;;;11.10;99.90;;;;;;5014868;28;20050;-88
2022/11/04 09:39:55;;;;;;;;;;;;;;;;;;;;;
2022/11/04 09:43:13;;;;;;;0.10;0.10;;;11.30;99.90;;;;;;4997524;28;20057;-86
2022/11/04 09:46:04;;;;;;;0.95;0.17;;;11.50;99.90;;;;;;5012957;28;20503;-87
2022/11/04 09:49:14;;;;;;;4.55;0.20;;;11.60;99.90;;;;;;5002058;28;20197;-87
2022/11/04 09:52:30;;;;;;;1.80;0.20;;;11.80;99.90;;;;;;4995009;28;20515;-88
2022/11/04 09:55:48;;;;;;;0.80;0.20;;;11.80;99.90;;;;;;5000806;28;20046;-86
2022/11/04 09:58:54;;;;;;;2.22;0.20;;;11.70;99.90;;;;;;5011699;28;20045;-89
2022/11/04 10:02:30;;;;;;;1.20;0.20;;;11.70;99.90;;;;;;5015048;28;20049;-87
2022/11/04 10:05:39;;;;;;;0.10;0.10;;;11.80;99.90;;;;;;4996986;28;20449;-86
2022/11/04 10:09:02;;;;;;;0.60;0.30;;;11.70;99.90;;;;;;5014372;28;20108;-87
2022/11/04 10:12:21;;;;;;;0.22;0.10;;;11.80;99.90;;;;;;4995188;28;20050;-87
2022/11/04 10:15:44;;;;;;;0.60;0.20;;;11.90;99.90;;;;;;4992127;28;20058;-87
2022/11/04 10:19:06;;;;;;;2.40;0.20;;;12.00;99.90;;;;;;4977086;28;20058;-87
2022/11/04 10:22:28;;;;;;;0.82;0.20;;;12.10;99.90;;;;;;4991334;28;20061;-85
2022/11/04 10:25:37;;;;;;;0.88;0.22;;;12.20;99.90;;;;;;4996918;28;20084;-87
2022/11/04 10:28:26;;;;;;;;;;;12.20;99.90;;;;;;5009422;28;20057;-87
2022/11/04 10:31:27;;;;;;;0.75;0.20;;;12.30;99.90;;;;;;5008173;28;19968;-87
2022/11/04 10:34:11;;;;;;;0.43;0.10;;;12.30;99.90;;;;;;4995568;28;20045;-86
2022/11/04 10:36:38;;;;;;;0.60;0.30;;;12.40;99.90;;;;;;4996278;28;20049;-85
2022/11/04 10:39:17;;;;;;;0.63;0.30;;;12.50;99.90;;;;;;5013341;28;20030;-85
2022/11/04 10:41:46;;;;;;;0.90;0.17;;;12.60;99.90;;;;;;5013592;28;20120;-86
2022/11/04 10:44:13;;;;;;;0.28;0.10;;;12.80;99.90;;;;;;5013605;28;20038;-85
2022/11/04 10:46:59;;;;;;;0.75;0.10;;;12.90;99.90;;;;;;5013836;28;20046;-86
2022/11/04 10:49:41;;;;;;;1.90;0.17;;;13.00;99.90;;;;;;4996522;28;20042;-85
2022/11/04 10:52:11;;;;;;;0.30;0.20;;;12.90;99.90;;;;;;5011557;28;20062;-85
2022/11/04 10:54:41;;;;;;;3.13;0.20;;;12.90;99.90;;;;;;5007267;28;20042;-86
2022/11/04 10:57:10;;;;;;;2.05;0.32;;;12.90;99.90;;;;;;4993673;28;20177;-87
2022/11/04 10:59:59;;;;;;;1.40;0.35;;;12.90;99.90;;;;;;4976502;28;20121;-87
2022/11/04 11:02:45;;;;;;;6.22;0.60;;;13.20;99.90;;;;;;5022296;28;20161;-87
2022/11/04 11:05:22;;;;;;;0.98;0.30;;;13.00;99.90;;;;;;4995082;28;20054;-87
2022/11/04 11:07:57;;;;;;;3.05;0.30;;;13.10;99.90;;;;;;4993056;28;20042;-87
2022/11/04 11:10:32;;;;;;;0.40;0.20;;;13.20;99.90;;;;;;4993623;28;20415;-86
2022/11/04 11:13:06;;;;;;;0.45;0.40;;;13.20;99.90;;;;;;4993548;28;20109;-87
2022/11/04 11:15:36;;;;;;;0.88;0.25;;;13.30;99.90;;;;;;5008379;28;20048;-87
2022/11/04 11:18:16;;;;;;;2.15;0.20;;;13.30;99.90;;;;;;5008694;28;20054;-88
2022/11/04 11:21:04;;;;;;;0.35;0.20;;;13.30;99.90;;;;;;4993609;28;20053;-88
2022/11/04 11:23:53;;;;;;;2.05;0.17;;;13.30;99.90;;;;;;5011723;28;20134;-85
2022/11/04 11:26:32;;;;;;;2.83;0.40;;;13.20;99.90;;;;;;5013193;28;20513;-87
2022/11/04 11:29:10;;;;;;;1.77;0.20;;;13.30;99.90;;;;;;5003467;28;20111;-85
2022/11/04 11:31:44;;;;;;;1.08;0.10;;;13.30;99.90;;;;;;5011909;28;20596;-86
2022/11/04 11:34:25;;;;;;;2.30;0.30;;;13.40;99.90;;;;;;5011121;28;20060;-85
2022/11/04 11:37:00;;;;;;;1.17;0.10;;;13.50;99.90;;;;;;5010751;28;20110;-89
2022/11/04 11:39:36;;;;;;;4.07;0.40;;;13.50;99.90;;;;;;5006233;28;20092;-88
2022/11/04 11:42:12;;;;;;;0.75;0.30;;;13.60;99.90;;;;;;5012570;28;20041;-87
2022/11/04 11:44:47;;;;;;;1.77;0.10;;;13.50;99.90;;;;;;5018548;28;20037;-85
2022/11/04 11:47:23;;;;;;;4.75;0.30;;;13.40;99.90;;;;;;5002553;28;20053;-88
2022/11/04 11:50:23;;;;;;;2.95;0.45;;;13.40;99.90;;;;;;5038152;28;20382;-91
2022/11/04 11:52:51;;;;;;;1.48;0.20;;;13.20;99.90;;;;;;5014038;28;20145;-88
2022/11/04 11:55:42;;;;;;;1.42;0.20;;;13.10;99.90;;;;;;5028761;28;20438;-92
2022/11/04 11:58:49;;;;;;;0.47;0.28;;;13.00;99.90;;;;;;5018898;28;20041;-89
2022/11/04 12:01:33;;;;;;;1.38;0.20;;;12.90;99.90;;;;;;4935164;29;20048;-88
2022/11/04 12:04:36;;;;;;;2.28;0.25;;;12.80;99.90;;;;;;4920693;29;20464;-90
2022/11/04 12:07:36;;;;;;;1.80;0.20;;;12.80;99.90;;;;;;4921009;29;20063;-89
2022/11/04 12:11:10;;;;;;;;;;;;;;;;;;;;;
2022/11/04 12:14:11;;;;;;;;;;;;;;;;;;;;;
2022/11/04 12:17:32;;;;;;;;;;;;;;;;;;;;;
2022/11/04 12:20:44;;;;;;;1.17;0.20;;;12.30;99.90;;;;;;4960171;28;20118;-87
2022/11/04 12:23:58;;;;;;;2.20;0.20;;;12.20;99.90;;;;;;4924863;29;20059;-87
2022/11/04 12:26:57;;;;;;;0.10;0.10;;;12.10;99.90;;;;;;4951167;28;20412;-90
2022/11/04 12:29:35;;;;;;;2.20;0.20;;;12.10;99.90;;;;;;4954388;28;20050;-90
2022/11/04 12:32:46;;;;;;;1.05;0.10;;;12.20;99.90;;;;;;4952531;28;20041;-88
2022/11/04 12:35:52;;;;;;;0.95;0.20;;;12.20;99.90;;;;;;4924813;29;20044;-88
2022/11/04 12:38:43;;;;;;;0.75;0.22;;;12.30;99.90;;;;;;5008471;28;20045;-89
2022/11/04 12:41:32;;;;;;;1.83;0.20;;;12.30;99.90;;;;;;5020668;28;20049;-92
2022/11/04 12:44:36;;;;;;;0.85;0.15;;;12.40;99.90;;;;;;4989286;28;20069;-91
2022/11/04 12:47:42;;;;;;;1.67;0.30;;;12.50;99.90;;;;;;5017866;28;20103;-91
2022/11/04 12:50:41;;;;;;;2.15;0.50;;;12.50;99.90;;;;;;5014323;28;20046;-90
2022/11/04 12:53:58;;;;;;;2.60;0.20;;;12.50;99.90;;;;;;5011625;28;20069;-85
2022/11/04 12:56:40;;;;;;;0.55;0.10;;;12.40;99.90;;;;;;5020701;28;20069;-85
2022/11/04 12:59:07;;;;;;;2.35;0.25;;;12.40;99.90;;;;;;5018401;28;20038;-86
2022/11/04 13:01:51;;;;;;;2.10;0.20;;;12.30;99.90;;;;;;5004500;28;20053;-92
2022/11/04 13:05:08;;;;;;;0.90;0.20;;;12.30;99.90;;;;;;5018498;28;20061;-95
2022/11/04 13:07:52;;;;;;;2.95;0.30;;;12.30;99.90;;;;;;4892478;29;20056;-86
2022/11/04 13:10:46;;;;;;;2.60;0.30;;;12.20;99.90;;;;;;4907931;29;20059;-86
2022/11/04 13:13:21;;;;;;;1.02;0.20;;;12.10;99.90;;;;;;4828345;29;20188;-86
2022/11/04 13:16:02;;;;;;;3.55;0.30;;;12.00;99.90;;;;;;4844591;29;20625;-84
2022/11/04 13:18:34;;;;;;;1.88;0.20;;;12.00;99.90;;;;;;4852508;29;20057;-86
2022/11/04 13:21:05;;;;;;;2.45;0.20;;;11.90;99.90;;;;;;4833883;29;20065;-88
2022/11/04 13:23:56;;;;;;;0.95;0.47;;;11.80;99.90;;;;;;4850790;29;20098;-88
2022/11/04 13:26:26;;;;;;;1.38;0.20;;;11.80;99.90;;;;;;4851946;29;20061;-90
2022/11/04 13:29:26;;;;;;;1.98;0.30;;;11.90;99.90;;;;;;4848783;29;20110;-89
2022/11/04 13:32:26;;;;;;;7.22;0.38;;;12.00;99.90;;;;;;4849221;29;20085;-89
2022/11/04 13:35:30;;;;;;;2.67;0.30;;;12.10;99.90;;;;;;4841277;29;20175;-88
2022/11/04 13:38:07;;;;;;;2.78;0.50;;;12.20;99.90;;;;;;4837317;29;20080;-90
2022/11/04 13:40:50;;;;;;;2.75;0.85;;;12.40;99.90;;;;;;4827940;29;20053;-89
2022/11/04 13:43:39;;;;;;;3.10;0.80;;;12.50;99.90;;;;;;4852811;29;20048;-89
2022/11/04 13:46:27;;;;;;;4.38;1.23;;;12.60;99.90;;;;;;4924446;29;20679;-91
2022/11/04 13:49:09;;;;;;;;;;;12.70;99.90;;;;;;4919136;29;20062;-89
2022/11/04 13:51:44;;;;;;;1.25;0.22;;;12.80;99.90;;;;;;5029321;28;20300;-90
2022/11/04 13:54:35;;;;;;;1.88;0.43;;;12.70;99.90;;;;;;5015697;28;20057;-89
2022/11/04 13:57:10;;;;;;;1.58;0.22;;;12.70;99.90;;;;;;4997435;28;20057;-88
2022/11/04 13:59:39;;;;;;;1.75;0.30;;;12.70;99.90;;;;;;5007355;28;20042;-88
2022/11/04 14:02:11;;;;;;;3.17;0.50;;;12.60;99.90;;;;;;5014242;28;20042;-88
2022/11/04 14:04:46;;;;;;;2.05;0.30;;;12.60;99.90;;;;;;5015547;28;20096;-88
2022/11/04 14:07:16;;;;;;;3.03;0.43;;;12.50;99.90;;;;;;5023149;28;20106;-89
2022/11/04 14:09:42;;;;;;;3.53;0.43;;;12.50;99.90;;;;;;5020819;28;20541;-89
2022/11/04 14:12:15;;;;;;;2.20;0.32;;;12.40;99.90;;;;;;5014651;28;20125;-88
2022/11/04 14:14:50;;;;;;;1.52;0.40;;;12.30;99.90;;;;;;5017518;28;20052;-88
2022/11/04 14:17:32;;;;;;;2.65;0.40;;;12.30;99.90;;;;;;5021284;28;20049;-88
2022/11/04 14:20:07;;;;;;;4.32;0.52;;;12.20;99.90;;;;;;5014544;28;20077;-89
2022/11/04 14:23:11;;;;;;;;;;;;;;;;;;;;;
2022/11/04 14:26:24;;;;;;;;;;;;;;;;;;;;;
2022/11/04 14:29:09;;;;;;;2.63;0.52;;;12.20;99.90;;;;;;5010880;28;20509;-87
2022/11/04 14:32:13;;;;;;;1.52;0.52;;;12.30;99.90;;;;;;4993286;28;20050;-89
2022/11/04 14:35:30;;;;;;;3.70;0.57;;;12.30;99.90;;;;;;5011667;28;20050;-89
2022/11/04 14:38:16;;;;;;;1.30;0.38;;;12.20;99.90;;;;;;5008660;28;20108;-87
2022/11/04 14:41:09;;;;;;;4.00;0.40;;;12.10;99.90;;;;;;5017182;28;20041;-86
2022/11/04 14:43:46;;;;;;;3.08;0.50;;;12.10;99.90;;;;;;5016345;28;20091;-87
2022/11/04 14:46:45;;;;;;;3.78;0.30;;;12.20;99.90;;;;;;4997605;28;20042;-87
2022/11/04 14:50:08;;;;;;;2.65;0.50;;;12.10;99.90;;;;;;5005183;28;20512;-89
2022/11/04 14:53:32;;;;;;;;;;;;;;;;;;;;;
2022/11/04 14:56:29;;;;;;;4.50;0.50;;;12.30;99.90;;;;;;4958459;28;20058;-92
2022/11/04 14:59:36;;;;;;;3.90;0.47;;;12.30;99.90;;;;;;4991689;28;20053;-88
2022/11/04 15:02:24;;;;;;;4.93;0.50;;;12.70;99.90;;;;;;4930387;28;20059;-86
2022/11/04 15:05:25;;;;;;;1.55;0.40;;;12.20;99.90;;;;;;4917220;29;20068;-91
2022/11/04 15:07:59;;;;;;;;;;;12.10;99.90;;;;;;4931856;29;20500;-87
2022/11/04 15:12:49;;;;;;;3.60;0.68;;;11.90;99.90;;;;;;4926535;29;20360;-91
2022/11/04 15:14:37;;;;;;;1.52;0.30;;;11.80;99.90;;;;;;4870089;29;20050;-89
2022/11/04 15:17:38;;;;;;;3.97;0.50;;;11.60;99.90;;;;;;4875776;29;20101;-89
2022/11/04 15:20:39;;;;;;;2.25;0.70;;;11.50;99.90;;;;;;4860811;29;20056;-88
2022/11/04 15:23:42;;;;;;;1.15;0.47;;;11.40;99.90;;;;;;4876843;29;20545;-88
2022/11/04 15:26:39;;;;;;;1.30;0.50;;;11.30;99.90;;;;;;4877369;29;20061;-89
2022/11/04 15:29:27;;;;;;;1.80;0.60;;;11.20;99.90;;;;;;4859366;29;20057;-88
2022/11/04 15:32:37;;;;;;;2.38;0.40;;;11.10;99.90;;;;;;4876930;29;20132;-87
2022/11/04 15:35:42;;;;;;;3.80;0.40;;;11.00;99.90;;;;;;4878856;29;20045;-86
2022/11/04 15:38:43;;;;;;;3.35;0.30;;;10.90;99.90;;;;;;4886128;29;20590;-90
2022/11/04 15:44:33;;;;;;;1.53;0.40;;;10.70;99.90;;;;;;4896277;29;20591;-89
2022/11/04 15:47:33;;;;;;;;;;;;;;;;;;;;;
2022/11/04 15:50:33;;;;;;;;;;;;;;;;;;;;;
2022/11/04 15:53:53;;;;;;;4.80;0.52;;;10.40;99.90;;;;;;4991868;28;20058;-87
2022/11/04 15:56:59;;;;;;;1.58;0.40;;;10.20;99.90;;;;;;5014533;28;20052;-90
2022/11/04 15:59:52;;;;;;;2.92;0.43;;;10.20;99.90;;;;;;4974790;28;20510;-88
2022/11/04 16:03:08;;;;;;;2.85;0.30;;;10.10;99.90;;;;;;5012663;28;20045;-88
2022/11/04 16:06:03;;;;;;;1.52;0.32;;;10.00;99.90;;;;;;5019726;28;20038;-88
2022/11/04 16:09:02;;;;;;;1.20;0.25;;;9.90;99.90;;;;;;5022595;28;20036;-87
2022/11/04 16:12:16;;;;;;;;;;;;;;;;;;;;;
2022/11/04 16:15:24;;;;;;;2.83;0.63;;;9.60;99.90;;;;;;5005503;28;20521;-86
2022/11/04 16:18:41;;;;;;;0.35;0.20;;;9.50;99.90;;;;;;4964814;28;20053;-87
2022/11/04 16:21:57;;;;;;;;;;;;;;;;;;;;;
2022/11/04 16:24:59;;;;;;;0.77;0.30;;;9.40;99.90;;;;;;4959474;28;20239;-87
2022/11/04 16:28:18;;;;;;;1.05;0.40;;;9.30;99.90;;;;;;4959448;28;20540;-85
2022/11/04 16:32:02;;;;;;;;;;;;;;;;;;;;;
2022/11/04 16:35:23;;;;;;;2.70;0.50;;;9.20;99.90;;;;;;4982578;28;20149;-86
2022/11/04 16:38:52;;;;;;;;;;;;;;;;;;;;;
2022/11/04 16:42:16;;;;;;;;;;;;;;;;;;;;;
2022/11/04 16:45:25;;;;;;;1.73;0.43;;;8.90;99.90;;;;;;4974866;28;20524;-85
2022/11/04 16:55:47;;;;;;;2.45;0.60;;;8.60;99.90;;;;;;4963663;28;20153;-86
2022/11/04 16:58:21;;;;;;;1.85;0.40;;;8.50;99.90;;;;;;4996921;28;20088;-88
2022/11/04 17:01:35;;;;;;;;;;;;;;;;;;;;;
2022/11/04 17:04:15;;;;;;;1.67;0.45;;;8.40;99.90;;;;;;5017618;28;20149;-84
2022/11/04 17:06:57;;;;;;;2.40;0.47;;;8.40;99.90;;;;;;5000137;28;20049;-85
2022/11/04 17:10:06;;;;;;;1.65;0.45;;;8.40;99.90;;;;;;4996250;28;20053;-86
2022/11/04 17:12:38;;;;;;;4.53;0.60;;;8.40;99.90;;;;;;5024622;28;20045;-86
2022/11/04 17:15:43;;;;;;;0.75;0.50;;;8.20;99.90;;;;;;4998604;28;20110;-89
2022/11/04 17:19:17;;;;;;;2.05;0.40;;;8.10;99.90;;;;;;5003846;28;20368;-87
2022/11/04 17:22:49;;;;;;;;;;;;;;;;;;;;;
2022/11/04 17:26:59;;;;;;;;;;;;;;;;;;;;;
2022/11/04 17:30:50;;;;;;;;;;;;;;;;;;;;;
2022/11/04 17:38:00;;;;;;;1.73;0.63;;;7.90;99.90;;;;;;4958218;28;20435;-87
2022/11/04 17:44:32;;;;;;;1.70;0.40;;;8.10;99.90;;;;;;4941536;28;20058;-89
2022/11/04 17:47:26;;;;;;;;;;;7.80;99.90;;;;;;4953521;28;20059;-88
2022/11/04 17:50:30;;;;;;;2.67;0.40;;;7.80;99.90;;;;;;4945993;28;19929;-87
2022/11/04 17:53:44;;;;;;;2.28;0.50;;;8.30;99.90;;;;;;4955532;28;20122;-88
2022/11/04 17:57:05;;;;;;;0.82;0.30;;;7.80;99.90;;;;;;4951449;28;20094;-87
2022/11/04 18:00:31;;;;;;;2.55;0.60;;;7.80;99.90;;;;;;4954001;28;20055;-87
2022/11/04 18:03:29;;;;;;;2.10;0.47;;;7.80;99.90;;;;;;4962898;28;20055;-88
2022/11/04 18:07:06;;;;;;;;;;;;;;;;;;;;;
2022/11/04 18:10:24;;;;;;;;;;;;;;;;;;;;;
2022/11/04 18:13:41;;;;;;;1.45;0.77;;;7.80;99.90;;;;;;4990160;28;20403;-89
2022/11/04 18:17:06;;;;;;;;;;;;;;;;;;;;;
2022/11/04 18:20:09;;;;;;;2.17;0.60;;;7.80;99.90;;;;;;5002931;28;20133;-87
2022/11/04 18:23:03;;;;;;;;;;;;;;;;;;;;;
2022/11/04 18:25:41;;;;;;;4.63;0.82;;;7.70;99.90;;;;;;5015450;28;20043;-89
2022/11/04 18:28:39;;;;;;;3.75;0.80;;;7.70;99.90;;;;;;4989258;28;20049;-86
2022/11/04 18:31:33;;;;;;;2.47;0.60;;;7.70;99.90;;;;;;4983534;28;20104;-88
2022/11/04 18:34:10;;;;;;;2.28;0.70;;;7.70;99.90;;;;;;5015585;28;20401;-88
2022/11/04 18:37:15;;;;;;;2.58;0.73;;;7.70;99.90;;;;;;4993021;28;20161;-91
2022/11/04 18:40:41;;;;;;;1.67;0.63;;;7.60;99.90;;;;;;5014917;28;20046;-89
2022/11/04 18:44:04;;;;;;;;;;;;;;;;;;;;;
2022/11/04 18:46:40;;;;;;;2.33;0.80;;;7.60;99.90;;;;;;5002768;28;20100;-88
2022/11/04 18:49:13;;;;;;;3.35;1.00;;;7.60;99.90;;;;;;5005277;28;20158;-89
2022/11/04 18:51:44;;;;;;;2.05;0.60;;;8.00;99.90;;;;;;5015232;28;20042;-89
2022/11/04 18:54:13;;;;;;;1.75;0.70;;;7.50;99.90;;;;;;5010921;28;20057;-89
2022/11/04 18:56:48;;;;;;;1.73;0.70;;;7.50;99.90;;;;;;4995504;28;20044;-87
2022/11/04 18:59:20;;;;;;;2.05;0.68;;;7.50;99.90;;;;;;5024066;28;20502;-88
2022/11/04 19:01:51;;;;;;;2.28;0.73;;;7.50;99.90;;;;;;5032831;28;20052;-87